createdAt,value
2023-12-23T00:00:27.566Z,99479.44
2023-12-23T00:02:54.968Z,99482.03
2023-12-23T00:05:23.849Z,99489.06
2023-12-23T00:07:52.524Z,99498.63
2023-12-23T00:10:21.311Z,99490.94
2023-12-23T00:12:49.808Z,99506.47
2023-12-23T00:15:19.689Z,99508.22
2023-12-23T00:17:50.667Z,99519.34
2023-12-23T00:20:19.759Z,99524.53
2023-12-23T00:22:48.804Z,99522.03
2023-12-23T00:25:17.262Z,99538.28
2023-12-23T00:27:45.983Z,99546.03
2023-12-23T00:30:17.107Z,99547.78
2023-12-23T00:32:47.720Z,99565.91
2023-12-23T00:35:16.448Z,99534.91
2023-12-23T00:37:45.113Z,99556.38
2023-12-23T00:40:14.189Z,99541.03
2023-12-23T00:42:42.730Z,99572.81
2023-12-23T00:45:11.213Z,99578.06
2023-12-23T00:47:39.717Z,99577.34
2023-12-23T00:50:11.596Z,99576.50
2023-12-23T00:52:40.122Z,99571.34
2023-12-23T00:55:09.791Z,99579.97
2023-12-23T00:57:38.308Z,99569.69
2023-12-23T01:00:09.077Z,99580.03
2023-12-23T01:02:37.504Z,99574.88
2023-12-23T01:05:07.142Z,99581.00
2023-12-23T01:07:36.981Z,99596.44
2023-12-23T01:10:06.753Z,99570.78
2023-12-23T01:12:35.236Z,99617.13
2023-12-23T01:15:04.063Z,99606.75
2023-12-23T01:17:32.568Z,99603.38
2023-12-23T01:20:02.057Z,99606.00
2023-12-23T01:22:30.560Z,99610.28
2023-12-23T01:25:00.408Z,99535.63
2023-12-23T01:27:28.903Z,99594.00
2023-12-23T01:29:57.398Z,99614.53
2023-12-23T01:32:25.817Z,99617.09
2023-12-23T01:34:54.208Z,99624.91
2023-12-23T01:37:24.798Z,99617.16
2023-12-23T01:39:53.192Z,99618.00
2023-12-23T01:42:23.179Z,99606.03
2023-12-23T01:44:51.669Z,99620.59
2023-12-23T01:47:20.344Z,99629.19
2023-12-23T01:49:49.953Z,99637.78
2023-12-23T01:52:18.754Z,99630.03
2023-12-23T01:54:48.018Z,99578.59
2023-12-23T01:57:16.534Z,99645.53
2023-12-23T01:59:46.568Z,99527.13
2023-12-23T02:02:16.171Z,99593.19
2023-12-23T02:04:44.901Z,99655.00
2023-12-23T02:07:12.431Z,99655.88
2023-12-23T02:09:41.713Z,99652.44
2023-12-23T02:12:22.115Z,99659.34
2023-12-23T02:15:04.311Z,99633.53
2023-12-23T02:17:33.651Z,99624.97
2023-12-23T02:20:02.351Z,99566.63
2023-12-23T02:22:32.460Z,99664.53
2023-12-23T02:25:01.140Z,99656.75
2023-12-23T02:27:35.547Z,99652.44
2023-12-23T02:30:04.545Z,99592.34
2023-12-23T02:32:33.821Z,99626.72
2023-12-23T02:35:02.580Z,99546.91
2023-12-23T02:37:32.391Z,99642.13
2023-12-23T02:40:01.091Z,99639.56
2023-12-23T02:42:29.625Z,99636.09
2023-12-23T02:44:58.011Z,99635.19
2023-12-23T02:47:26.509Z,99637.78
2023-12-23T02:49:54.899Z,99641.25
2023-12-23T02:52:26.349Z,99634.34
2023-12-23T02:54:56.148Z,99636.09
2023-12-23T02:57:24.568Z,99606.84
2023-12-23T02:59:52.953Z,99620.59
2023-12-23T03:02:23.446Z,99623.09
2023-12-23T03:04:51.890Z,99611.97
2023-12-23T03:07:20.297Z,99602.47
2023-12-23T03:09:48.731Z,99594.72
2023-12-23T03:12:18.493Z,99590.44
2023-12-23T03:14:47.784Z,99582.66
2023-12-23T03:17:16.756Z,99582.66
2023-12-23T03:19:45.393Z,99542.34
2023-12-23T03:22:13.749Z,99569.69
2023-12-23T03:24:42.529Z,99553.28
2023-12-23T03:27:11.039Z,99564.53
2023-12-23T03:29:40.826Z,99505.34
2023-12-23T03:32:09.352Z,99485.59
2023-12-23T03:34:38.235Z,99545.66
2023-12-23T03:37:06.683Z,99568.78
2023-12-23T03:39:35.108Z,99511.31
2023-12-23T03:42:04.697Z,99556.78
2023-12-23T03:44:33.150Z,99549.09
2023-12-23T03:47:02.897Z,99579.97
2023-12-23T03:49:31.394Z,99559.28
2023-12-23T03:51:59.807Z,99557.59
2023-12-23T03:54:28.253Z,99537.03
2023-12-23T03:56:56.729Z,99544.72
2023-12-23T03:59:25.121Z,99537.88
2023-12-23T04:01:53.549Z,99540.38
2023-12-23T04:04:23.447Z,99492.38
2023-12-23T04:06:51.977Z,99506.13
2023-12-23T04:09:20.467Z,99546.34
2023-12-23T04:11:48.858Z,99529.97
2023-12-23T04:14:17.491Z,99521.44
2023-12-23T04:16:46.041Z,99533.41
2023-12-23T04:19:14.754Z,99524.84
2023-12-23T04:21:44.581Z,99534.31
2023-12-23T04:24:13.212Z,99534.31
2023-12-23T04:26:41.673Z,99467.44
2023-12-23T04:29:10.178Z,99517.09
2023-12-23T04:31:38.770Z,99499.13
2023-12-23T04:34:08.650Z,99516.22
2023-12-23T04:36:37.445Z,99512.75
2023-12-23T04:39:07.411Z,99498.94
2023-12-23T04:41:36.060Z,99493.81
2023-12-23T04:44:05.377Z,99488.63
2023-12-23T04:46:33.840Z,99496.28
2023-12-23T04:49:02.292Z,99450.06
2023-12-23T04:51:30.880Z,99499.72
2023-12-23T04:53:59.581Z,99505.72
2023-12-23T04:56:29.495Z,99491.88
2023-12-23T04:58:58.148Z,99462.75
2023-12-23T05:01:26.925Z,99484.91
2023-12-23T05:03:56.356Z,99478.84
2023-12-23T05:06:24.757Z,99472.75
2023-12-23T05:08:53.324Z,99446.13
2023-12-23T05:11:21.934Z,99468.38
2023-12-23T05:13:51.830Z,99459.75
2023-12-23T05:16:20.845Z,99443.41
2023-12-23T05:18:49.628Z,99460.50
2023-12-23T05:21:18.172Z,99462.19
2023-12-23T05:23:46.754Z,99433.03
2023-12-23T05:26:19.947Z,99445.78
2023-12-23T05:28:48.651Z,99449.19
2023-12-23T05:31:19.110Z,99448.31
2023-12-23T05:33:48.357Z,99387.47
2023-12-23T05:36:16.945Z,99434.44
2023-12-23T05:38:45.518Z,99456.88
2023-12-23T05:41:14.033Z,99397.63
2023-12-23T05:43:42.493Z,99442.16
2023-12-23T05:46:11.439Z,99435.31
2023-12-23T05:48:41.272Z,99432.81
2023-12-23T05:51:10.101Z,99443.91
2023-12-23T05:53:38.487Z,99445.69
2023-12-23T05:56:08.910Z,99449.13
2023-12-23T05:58:37.577Z,99449.97
2023-12-23T06:01:07.872Z,99443.09
2023-12-23T06:03:36.527Z,99419.22
2023-12-23T06:06:07.567Z,99411.53
2023-12-23T06:08:36.068Z,99432.06
2023-12-23T06:11:05.985Z,99440.56
2023-12-23T06:13:34.818Z,99410.56
2023-12-23T06:16:08.036Z,99414.81
2023-12-23T06:18:36.649Z,99428.56
2023-12-23T06:21:06.753Z,99429.41
2023-12-23T06:23:35.204Z,99397.00
2023-12-23T06:26:04.550Z,99336.13
2023-12-23T06:28:33.105Z,99433.75
2023-12-23T06:31:01.588Z,99426.06
2023-12-23T06:33:30.124Z,99432.03
2023-12-23T06:35:58.645Z,99420.84
2023-12-23T06:38:28.462Z,99407.88
2023-12-23T06:40:57.544Z,99412.16
2023-12-23T06:43:45.267Z,99414.84
2023-12-23T06:46:14.871Z,99415.56
2023-12-23T06:48:43.503Z,99419.88
2023-12-23T06:51:12.008Z,99421.59
2023-12-23T06:53:41.982Z,99373.69
2023-12-23T06:56:10.827Z,99416.34
2023-12-23T06:58:39.299Z,99413.72
2023-12-23T07:01:07.939Z,99422.34
2023-12-23T07:03:36.490Z,99416.31
2023-12-23T07:06:05.431Z,99412.13
2023-12-23T07:08:35.360Z,99344.50
2023-12-23T07:11:07.079Z,99427.47
2023-12-23T07:13:35.914Z,99406.94
2023-12-23T07:16:06.056Z,99400.91
2023-12-23T07:18:34.588Z,99414.53
2023-12-23T07:21:03.893Z,99417.09
2023-12-23T07:23:32.389Z,99417.06
2023-12-23T07:26:00.992Z,99420.44
2023-12-23T07:28:31.269Z,99420.47
2023-12-23T07:30:59.851Z,99399.91
2023-12-23T07:33:28.456Z,99429.94
2023-12-23T07:35:56.992Z,99424.72
2023-12-23T07:38:25.863Z,99370.88
2023-12-23T07:40:54.336Z,99328.09
2023-12-23T07:43:23.716Z,99438.56
2023-12-23T07:45:53.578Z,99430.81
2023-12-23T07:48:22.646Z,99425.66
2023-12-23T07:50:51.190Z,99447.19
2023-12-23T07:53:19.776Z,99448.94
2023-12-23T07:55:49.199Z,99433.38
2023-12-23T07:58:17.749Z,99400.13
2023-12-23T08:00:46.666Z,99437.78
2023-12-23T08:03:16.605Z,99441.22
2023-12-23T08:05:45.397Z,99438.56
2023-12-23T08:08:14.868Z,99439.41
2023-12-23T08:10:47.158Z,99434.25
2023-12-23T08:13:15.606Z,99439.41
2023-12-23T08:15:44.051Z,99436.00
2023-12-23T08:18:13.381Z,99400.81
2023-12-23T08:20:43.495Z,99433.28
2023-12-23T08:23:11.939Z,99428.00
2023-12-23T08:25:40.920Z,99423.63
2023-12-23T08:28:09.562Z,99420.19
2023-12-23T08:30:38.370Z,99414.13
2023-12-23T08:33:07.349Z,99409.06
2023-12-23T08:35:35.938Z,99406.44
2023-12-23T08:38:06.328Z,99420.09
2023-12-23T08:40:34.809Z,99421.69
2023-12-23T08:43:03.438Z,99425.22
2023-12-23T08:45:32.083Z,99426.81
2023-12-23T08:48:00.645Z,99405.25
2023-12-23T08:50:29.277Z,99426.00
2023-12-23T08:52:58.145Z,99423.44
2023-12-23T08:55:28.163Z,99437.09
2023-12-23T08:57:57.227Z,99434.41
2023-12-23T09:00:25.704Z,99331.88
2023-12-23T09:02:54.274Z,99437.13
2023-12-23T09:05:22.897Z,99420.84
2023-12-23T09:07:51.695Z,99391.72
2023-12-23T09:10:20.554Z,99380.75
2023-12-23T09:12:50.308Z,99445.72
2023-12-23T09:15:18.810Z,99452.59
2023-12-23T09:17:47.410Z,99456.03
2023-12-23T09:20:16.265Z,99453.44
2023-12-23T09:22:46.005Z,99434.75
2023-12-23T09:25:15.708Z,99442.50
2023-12-23T09:27:44.167Z,99444.13
2023-12-23T09:30:14.946Z,99466.56
2023-12-23T09:32:43.540Z,99461.41
2023-12-23T09:35:12.155Z,99462.41
2023-12-23T09:37:40.659Z,99462.31
2023-12-23T09:40:11.659Z,99464.91
2023-12-23T09:42:40.384Z,99464.91
2023-12-23T09:45:09.717Z,99458.91
2023-12-23T09:47:39.689Z,99469.28
2023-12-23T09:50:10.144Z,99473.59
2023-12-23T09:52:38.864Z,99470.16
2023-12-23T09:55:12.930Z,99335.84
2023-12-23T09:57:42.029Z,99478.81
2023-12-23T10:00:12.219Z,99468.59
2023-12-23T10:02:43.826Z,99483.28
2023-12-23T10:05:12.390Z,99515.91
2023-12-23T10:07:40.876Z,99484.19
2023-12-23T10:10:10.298Z,99499.66
2023-12-23T10:12:38.760Z,99478.00
2023-12-23T10:15:08.386Z,99444.88
2023-12-23T10:17:38.406Z,99486.72
2023-12-23T10:20:09.612Z,99494.38
2023-12-23T10:22:37.944Z,99466.66
2023-12-23T10:25:07.172Z,99474.38
2023-12-23T10:27:35.842Z,99469.13
2023-12-23T10:30:11.870Z,99464.78
2023-12-23T10:32:41.604Z,99449.06
2023-12-23T10:35:16.848Z,99443.09
2023-12-23T10:37:45.530Z,99448.16
2023-12-23T10:40:20.856Z,99435.19
2023-12-23T10:42:52.414Z,99462.69
2023-12-23T10:45:23.060Z,99437.75
2023-12-23T10:47:53.697Z,99466.06
2023-12-23T10:50:25.543Z,99429.19
2023-12-23T10:52:55.881Z,99393.31
2023-12-23T10:55:27.541Z,99454.84
2023-12-23T10:57:58.795Z,99465.16
2023-12-23T11:00:28.015Z,99465.06
2023-12-23T11:03:00.612Z,99471.97
2023-12-23T11:05:31.378Z,99466.97
2023-12-23T11:08:07.435Z,99473.81
2023-12-23T11:10:44.390Z,99489.16
2023-12-23T11:13:14.038Z,99460.84
2023-12-23T11:15:43.683Z,99484.09
2023-12-23T11:18:12.736Z,99478.91
2023-12-23T11:20:51.408Z,99434.31
2023-12-23T11:23:35.648Z,99486.66
2023-12-23T11:26:06.207Z,99484.09
2023-12-23T11:28:38.715Z,99484.09
2023-12-23T11:31:07.590Z,99403.56
2023-12-23T11:33:38.015Z,99490.97
2023-12-23T11:36:09.456Z,99490.03
2023-12-23T11:38:49.790Z,99436.94
2023-12-23T11:41:19.007Z,99491.81
2023-12-23T11:43:49.132Z,99486.50
2023-12-23T11:46:19.724Z,99476.25
2023-12-23T11:48:48.069Z,99477.88
2023-12-23T11:51:17.908Z,99489.91
2023-12-23T11:53:46.508Z,99476.13
2023-12-23T11:56:16.816Z,99431.59
2023-12-23T11:58:45.369Z,99473.69
2023-12-23T12:01:13.851Z,99488.22
2023-12-23T12:03:42.392Z,99466.56
2023-12-23T12:06:11.189Z,99477.75
2023-12-23T12:08:41.110Z,99469.19
2023-12-23T12:11:10.069Z,99489.09
2023-12-23T12:13:38.928Z,99437.59
2023-12-23T12:16:08.457Z,99459.75
2023-12-23T12:18:37.163Z,99452.75
2023-12-23T12:21:05.855Z,99477.66
2023-12-23T12:23:34.312Z,99435.44
2023-12-23T12:26:04.609Z,99386.63
2023-12-23T12:28:33.867Z,99452.50
2023-12-23T12:31:12.985Z,99435.19
2023-12-23T12:33:45.132Z,99435.97
2023-12-23T12:36:17.470Z,99442.81
2023-12-23T12:38:46.905Z,99436.72
2023-12-23T12:41:17.751Z,99442.81
2023-12-23T12:43:46.943Z,99429.78
2023-12-23T12:46:17.183Z,99447.88
2023-12-23T12:48:47.408Z,99427.28
2023-12-23T12:51:18.592Z,99440.97
2023-12-23T12:53:48.435Z,99305.81
2023-12-23T12:56:22.981Z,99459.91
2023-12-23T12:58:52.775Z,99453.78
2023-12-23T13:01:22.099Z,99461.53
2023-12-23T13:03:50.780Z,99466.84
2023-12-23T13:06:19.280Z,99457.25
2023-12-23T13:08:47.884Z,99477.97
2023-12-23T13:11:17.717Z,99471.09
2023-12-23T13:13:46.631Z,99439.53
2023-12-23T13:16:15.473Z,99439.56
2023-12-23T13:18:52.807Z,99495.00
2023-12-23T13:21:25.658Z,99500.34
2023-12-23T13:23:54.896Z,99485.75
2023-12-23T13:26:24.966Z,99508.16
2023-12-23T13:28:53.623Z,99502.06
2023-12-23T13:31:22.543Z,99497.88
2023-12-23T13:33:50.006Z,99508.97
2023-12-23T13:36:18.593Z,99519.34
2023-12-23T13:38:47.325Z,99507.25
2023-12-23T13:41:20.217Z,99520.25
2023-12-23T13:43:50.189Z,99541.94
2023-12-23T13:46:18.586Z,99537.34
2023-12-23T13:48:47.243Z,99483.63
2023-12-23T13:51:15.969Z,99535.81
2023-12-23T13:53:45.299Z,99470.91
2023-12-23T13:56:13.761Z,99530.06
2023-12-23T13:58:42.148Z,99553.31
2023-12-23T14:01:12.193Z,99556.78
2023-12-23T14:03:40.769Z,99570.66
2023-12-23T14:06:09.421Z,99567.19
2023-12-23T14:08:37.944Z,99579.28
2023-12-23T14:11:06.520Z,99578.41
2023-12-23T14:13:34.968Z,99569.00
2023-12-23T14:16:03.374Z,99587.94
2023-12-23T14:18:33.448Z,99585.38
2023-12-23T14:21:03.217Z,99591.47
2023-12-23T14:23:31.809Z,99598.31
2023-12-23T14:26:00.535Z,99590.53
2023-12-23T14:28:28.980Z,99593.09
2023-12-23T14:30:57.572Z,99593.94
2023-12-23T14:33:26.556Z,99586.16
2023-12-23T14:35:57.070Z,99563.91
2023-12-23T14:38:25.647Z,99585.28
2023-12-23T14:40:54.036Z,99587.84
2023-12-23T14:43:22.964Z,99596.53
2023-12-23T14:45:51.343Z,99576.00
2023-12-23T14:48:19.893Z,99600.84
2023-12-23T14:50:48.347Z,99606.03
2023-12-23T14:53:18.582Z,99601.69
2023-12-23T14:55:47.009Z,99599.00
2023-12-23T14:58:16.084Z,99611.09
2023-12-23T15:00:44.597Z,99612.00
2023-12-23T15:03:13.048Z,99625.81
2023-12-23T15:05:41.714Z,99615.47
2023-12-23T15:08:10.235Z,99601.66
2023-12-23T15:10:40.516Z,99632.81
2023-12-23T15:13:09.072Z,99625.94
2023-12-23T15:15:38.171Z,99641.56
2023-12-23T15:18:10.447Z,99649.34
2023-12-23T15:20:38.952Z,99644.25
2023-12-23T15:23:07.716Z,99660.59
2023-12-23T15:25:36.286Z,99659.91
2023-12-23T15:28:06.864Z,99607.59
2023-12-23T15:30:35.881Z,99610.13
2023-12-23T15:33:04.640Z,99669.38
2023-12-23T15:35:33.261Z,99673.72
2023-12-23T15:38:01.838Z,99674.66
2023-12-23T15:40:30.336Z,99670.34
2023-12-23T15:42:58.661Z,99669.38
2023-12-23T15:45:28.376Z,99680.66
2023-12-23T15:47:56.867Z,99666.81
2023-12-23T15:50:25.520Z,99664.34
2023-12-23T15:52:54.189Z,99688.47
2023-12-23T15:55:23.023Z,99565.84
2023-12-23T15:57:51.419Z,99688.47
2023-12-23T16:00:20.697Z,99691.03
2023-12-23T16:02:52.096Z,99697.88
2023-12-23T16:05:21.077Z,99692.66
2023-12-23T16:07:50.019Z,99684.81
2023-12-23T16:10:18.750Z,99661.59
2023-12-23T16:12:47.333Z,99666.78
2023-12-23T16:15:16.484Z,99682.25
2023-12-23T16:17:45.546Z,99633.22
2023-12-23T16:20:15.841Z,99670.94
2023-12-23T16:22:44.880Z,99675.22
2023-12-23T16:25:13.409Z,99645.25
2023-12-23T16:27:42.098Z,99696.00
2023-12-23T16:30:12.070Z,99689.06
2023-12-23T16:32:40.768Z,99695.09
2023-12-23T16:35:10.622Z,99696.81
2023-12-23T16:37:41.809Z,99690.91
2023-12-23T16:40:11.344Z,99702.97
2023-12-23T16:42:39.765Z,99713.34
2023-12-23T16:45:15.752Z,99705.59
2023-12-23T16:47:44.495Z,99726.41
2023-12-23T16:50:15.090Z,99723.91
2023-12-23T16:52:45.255Z,99731.59
2023-12-23T16:55:13.945Z,99739.38
2023-12-23T16:57:42.425Z,99737.63
2023-12-23T17:00:12.168Z,99700.81
2023-12-23T17:02:40.679Z,99740.28
2023-12-23T17:05:10.187Z,99735.00
2023-12-23T17:07:38.775Z,99734.13
2023-12-23T17:10:09.727Z,99716.94
2023-12-23T17:12:38.300Z,99736.72
2023-12-23T17:15:08.695Z,99741.88
2023-12-23T17:17:38.606Z,99756.53
2023-12-23T17:20:09.159Z,99758.28
2023-12-23T17:22:37.811Z,99716.34
2023-12-23T17:25:08.540Z,99738.56
2023-12-23T17:27:36.936Z,99734.28
2023-12-23T17:30:07.198Z,99760.06
2023-12-23T17:32:35.789Z,99763.56
2023-12-23T17:35:10.569Z,99768.81
2023-12-23T17:37:38.951Z,99755.94
2023-12-23T17:40:10.704Z,99762.88
2023-12-23T17:42:39.138Z,99763.81
2023-12-23T17:45:08.713Z,99753.09
2023-12-23T17:47:37.311Z,99745.19
2023-12-23T17:50:06.861Z,99764.41
2023-12-23T17:52:35.442Z,99755.84
2023-12-23T17:55:03.932Z,99749.91
2023-12-23T17:57:33.830Z,99758.63
2023-12-23T18:00:02.346Z,99749.16
2023-12-23T18:02:33.071Z,99746.69
2023-12-23T18:05:02.568Z,99753.66
2023-12-23T18:07:31.256Z,99721.97
2023-12-23T18:09:59.804Z,99757.25
2023-12-23T18:12:28.291Z,99755.50
2023-12-23T18:14:58.506Z,99746.88
2023-12-23T18:17:28.465Z,99747.75
2023-12-23T18:19:56.976Z,99747.81
2023-12-23T18:22:27.205Z,99754.69
2023-12-23T18:24:55.653Z,99745.25
2023-12-23T18:27:24.001Z,99741.72
2023-12-23T18:29:52.910Z,99748.63
2023-12-23T18:32:22.999Z,99727.03
2023-12-23T18:34:51.672Z,99724.44
2023-12-23T18:37:20.225Z,99745.16
2023-12-23T18:39:48.572Z,99744.28
2023-12-23T18:42:17.050Z,99741.72
2023-12-23T18:44:45.657Z,99733.94
2023-12-23T18:47:14.058Z,99752.09
2023-12-23T18:49:43.839Z,99750.41
2023-12-23T18:52:12.206Z,99745.25
2023-12-23T18:54:41.496Z,99748.69
2023-12-23T18:57:09.936Z,99744.34
2023-12-23T18:59:38.412Z,99733.13
2023-12-23T19:02:09.582Z,99715.13
2023-12-23T19:04:38.743Z,99742.66
2023-12-23T19:07:09.987Z,99703.19
2023-12-23T19:09:38.783Z,99749.56
2023-12-23T19:12:07.432Z,99754.75
2023-12-23T19:14:35.858Z,99742.66
2023-12-23T19:17:04.692Z,99759.94
2023-12-23T19:19:33.192Z,99759.03
2023-12-23T19:22:01.636Z,99757.38
2023-12-23T19:24:31.453Z,99740.91
2023-12-23T19:27:00.301Z,99737.44
2023-12-23T19:29:29.010Z,99717.59
2023-12-23T19:31:57.472Z,99720.13
2023-12-23T19:34:25.831Z,99727.03
2023-12-23T19:36:54.381Z,99722.63
2023-12-23T19:39:23.911Z,99722.66
2023-12-23T19:41:53.719Z,99729.50
2023-12-23T19:44:25.429Z,99733.03
2023-12-23T19:46:53.965Z,99709.81
2023-12-23T19:49:22.512Z,99735.53
2023-12-23T19:51:49.933Z,99705.47
2023-12-23T19:54:18.367Z,99720.84
2023-12-23T19:56:46.838Z,99726.97
2023-12-23T19:59:16.697Z,99714.06
2023-12-23T20:01:48.592Z,99715.63
2023-12-23T20:04:17.266Z,99682.25
2023-12-23T20:06:45.795Z,99721.72
2023-12-23T20:09:16.243Z,99739.88
2023-12-23T20:11:45.592Z,99735.56
2023-12-23T20:14:15.036Z,99690.13
2023-12-23T20:16:45.068Z,99671.28
2023-12-23T20:19:17.390Z,99747.75
2023-12-23T20:21:46.081Z,99752.94
2023-12-23T20:24:18.257Z,99753.84
2023-12-23T20:26:46.757Z,99743.53
2023-12-23T20:29:15.653Z,99744.31
2023-12-23T20:31:45.445Z,99747.84
2023-12-23T20:34:13.916Z,99736.59
2023-12-23T20:36:44.695Z,99740.06
2023-12-23T20:39:25.825Z,99746.09
2023-12-23T20:41:56.874Z,99748.75
2023-12-23T20:44:26.052Z,99719.59
2023-12-23T20:46:58.295Z,99753.09
2023-12-23T20:49:26.995Z,99681.06
2023-12-23T20:51:55.405Z,99758.31
2023-12-23T20:54:24.266Z,99735.97
2023-12-23T20:56:54.078Z,99747.13
2023-12-23T20:59:22.549Z,99735.91
2023-12-23T21:01:51.672Z,99735.88
2023-12-23T21:04:21.502Z,99716.25
2023-12-23T21:06:51.087Z,99737.59
2023-12-23T21:09:19.576Z,99747.97
2023-12-23T21:11:48.040Z,99738.44
2023-12-23T21:14:16.861Z,99735.00
2023-12-23T21:16:45.275Z,99722.13
2023-12-23T21:19:13.706Z,99692.13
2023-12-23T21:21:43.508Z,99705.91
2023-12-23T21:24:11.944Z,99748.84
2023-12-23T21:26:40.438Z,99750.59
2023-12-23T21:29:08.989Z,99644.25
2023-12-23T21:31:37.412Z,99728.38
2023-12-23T21:34:05.878Z,99725.84
2023-12-23T21:36:34.737Z,99755.00
2023-12-23T21:39:04.796Z,99744.72
2023-12-23T21:41:33.340Z,99751.59
2023-12-23T21:44:02.111Z,99749.00
2023-12-23T21:46:30.547Z,99730.97
2023-12-23T21:49:00.363Z,99747.19
2023-12-23T21:51:29.043Z,99751.50
2023-12-23T21:53:57.427Z,99736.94
2023-12-23T21:56:27.213Z,99760.03
2023-12-23T21:58:55.697Z,99760.94
2023-12-23T22:01:24.049Z,99762.75
2023-12-23T22:03:52.626Z,99757.53
2023-12-23T22:06:21.526Z,99765.34
2023-12-23T22:08:51.746Z,99762.78
2023-12-23T22:11:20.167Z,99768.00
2023-12-23T22:13:53.087Z,99653.78
2023-12-23T22:16:21.480Z,99774.03
2023-12-23T22:18:50.453Z,99768.72
2023-12-23T22:21:19.044Z,99787.66
2023-12-23T22:23:47.504Z,99782.47
2023-12-23T22:26:16.145Z,99772.13
2023-12-23T22:28:44.626Z,99775.53
2023-12-23T22:31:14.471Z,99769.47
2023-12-23T22:33:44.780Z,99724.81
2023-12-23T22:36:13.359Z,99772.94
2023-12-23T22:38:41.986Z,99783.25
2023-12-23T22:41:11.588Z,99789.28
2023-12-23T22:43:40.084Z,99793.59
2023-12-23T22:46:08.586Z,99798.75
2023-12-23T22:48:38.359Z,99765.16
2023-12-23T22:51:08.363Z,99790.97
2023-12-23T22:53:37.024Z,99712.75
2023-12-23T22:56:06.834Z,99791.81
2023-12-23T22:58:35.448Z,99797.91
2023-12-23T23:01:03.993Z,99793.59
2023-12-23T23:03:32.922Z,99781.50
2023-12-23T23:06:02.968Z,99789.28
2023-12-23T23:08:31.584Z,99771.25
2023-12-23T23:11:00.042Z,99764.34
2023-12-23T23:13:28.472Z,99781.53
2023-12-23T23:15:56.850Z,99786.75
2023-12-23T23:18:25.416Z,99766.97
2023-12-23T23:20:53.922Z,99784.22
2023-12-23T23:23:23.912Z,99790.25
2023-12-23T23:25:52.331Z,99792.03
2023-12-23T23:28:20.819Z,99737.03
2023-12-23T23:30:50.472Z,99780.03
2023-12-23T23:33:19.176Z,99790.31
2023-12-23T23:35:47.664Z,99798.13
2023-12-23T23:38:16.273Z,99792.03
2023-12-23T23:40:49.589Z,99778.22
2023-12-23T23:43:18.109Z,99734.41
2023-12-23T23:45:46.559Z,99769.56
2023-12-23T23:48:15.457Z,99764.38
2023-12-23T23:50:44.102Z,99754.00
2023-12-23T23:53:13.684Z,99754.00
2023-12-23T23:55:42.704Z,99725.50
2023-12-23T23:58:12.624Z,99737.53
